sensor_id;sensor_type;location;lat;lon;timestamp;P1;durP1;ratioP1;P2;durP2;ratioP2
3355;SDS011;1691;52.486;13.374;2023-04-08T00:00:59;9.37;;;8.57;;
3355;SDS011;1691;52.486;13.374;2023-04-08T00:03:26;12.07;;;9.80;;
3355;SDS011;1691;52.486;13.374;2023-04-08T00:05:54;14.20;;;10.60;;
3355;SDS011;1691;52.486;13.374;2023-04-08T00:08:21;13.10;;;9.90;;
3355;SDS011;1691;52.486;13.374;2023-04-08T00:10:48;13.23;;;11.30;;
3355;SDS011;1691;52.486;13.374;2023-04-08T00:13:15;10.47;;;9.50;;
3355;SDS011;1691;52.486;13.374;2023-04-08T00:15:42;15.43;;;11.60;;
3355;SDS011;1691;52.486;13.374;2023-04-08T00:18:09;16.10;;;11.93;;
3355;SDS011;1691;52.486;13.374;2023-04-08T00:20:36;14.17;;;12.07;;
3355;SDS011;1691;52.486;13.374;2023-04-08T00:23:03;15.70;;;12.70;;
3355;SDS011;1691;52.486;13.374;2023-04-08T00:25:30;15.73;;;11.63;;
3355;SDS011;1691;52.486;13.374;2023-04-08T00:27:57;13.77;;;12.00;;
3355;SDS011;1691;52.486;13.374;2023-04-08T00:30:24;19.17;;;13.13;;
3355;SDS011;1691;52.486;13.374;2023-04-08T00:32:53;13.90;;;11.97;;
3355;SDS011;1691;52.486;13.374;2023-04-08T00:35:22;18.67;;;13.07;;
3355;SDS011;1691;52.486;13.374;2023-04-08T00:37:49;20.80;;;14.03;;
3355;SDS011;1691;52.486;13.374;2023-04-08T00:40:16;19.40;;;14.03;;
3355;SDS011;1691;52.486;13.374;2023-04-08T00:42:44;25.70;;;14.93;;
3355;SDS011;1691;52.486;13.374;2023-04-08T00:45:11;23.80;;;14.73;;
3355;SDS011;1691;52.486;13.374;2023-04-08T00:47:39;22.60;;;16.70;;
3355;SDS011;1691;52.486;13.374;2023-04-08T00:50:07;24.03;;;14.30;;
3355;SDS011;1691;52.486;13.374;2023-04-08T00:52:37;21.77;;;15.10;;
3355;SDS011;1691;52.486;13.374;2023-04-08T00:55:05;24.50;;;15.37;;
3355;SDS011;1691;52.486;13.374;2023-04-08T00:57:32;24.83;;;16.63;;
3355;SDS011;1691;52.486;13.374;2023-04-08T01:00:00;23.07;;;15.60;;
3355;SDS011;1691;52.486;13.374;2023-04-08T01:08:18;26.60;;;16.40;;
3355;SDS011;1691;52.486;13.374;2023-04-08T01:10:47;25.20;;;15.80;;
3355;SDS011;1691;52.486;13.374;2023-04-08T01:13:19;24.13;;;15.73;;
3355;SDS011;1691;52.486;13.374;2023-04-08T01:15:49;32.13;;;17.87;;
3355;SDS011;1691;52.486;13.374;2023-04-08T01:18:17;32.10;;;19.97;;
3355;SDS011;1691;52.486;13.374;2023-04-08T01:20:46;32.53;;;19.37;;
3355;SDS011;1691;52.486;13.374;2023-04-08T01:26:24;26.67;;;16.70;;
3355;SDS011;1691;52.486;13.374;2023-04-08T01:28:52;26.70;;;17.17;;
3355;SDS011;1691;52.486;13.374;2023-04-08T01:31:24;36.10;;;17.70;;
3355;SDS011;1691;52.486;13.374;2023-04-08T01:33:52;27.43;;;18.13;;
3355;SDS011;1691;52.486;13.374;2023-04-08T01:36:21;34.30;;;19.60;;
3355;SDS011;1691;52.486;13.374;2023-04-08T01:38:49;31.30;;;17.17;;
3355;SDS011;1691;52.486;13.374;2023-04-08T01:41:17;29.30;;;18.17;;
3355;SDS011;1691;52.486;13.374;2023-04-08T01:43:46;32.63;;;18.90;;
3355;SDS011;1691;52.486;13.374;2023-04-08T01:46:15;33.77;;;19.73;;
3355;SDS011;1691;52.486;13.374;2023-04-08T01:48:42;38.27;;;19.67;;
3355;SDS011;1691;52.486;13.374;2023-04-08T01:51:11;32.90;;;19.03;;
3355;SDS011;1691;52.486;13.374;2023-04-08T01:53:38;31.63;;;20.37;;
3355;SDS011;1691;52.486;13.374;2023-04-08T01:56:06;32.27;;;19.27;;
3355;SDS011;1691;52.486;13.374;2023-04-08T01:58:42;31.47;;;19.90;;
3355;SDS011;1691;52.486;13.374;2023-04-08T02:01:16;39.10;;;21.33;;
3355;SDS011;1691;52.486;13.374;2023-04-08T02:03:46;38.07;;;20.47;;
3355;SDS011;1691;52.486;13.374;2023-04-08T02:06:17;43.47;;;21.43;;
3355;SDS011;1691;52.486;13.374;2023-04-08T02:08:44;33.17;;;19.13;;
3355;SDS011;1691;52.486;13.374;2023-04-08T02:11:11;36.70;;;21.13;;
3355;SDS011;1691;52.486;13.374;2023-04-08T02:13:38;34.80;;;19.90;;
3355;SDS011;1691;52.486;13.374;2023-04-08T02:16:08;36.40;;;20.70;;
3355;SDS011;1691;52.486;13.374;2023-04-08T02:19:23;34.37;;;20.13;;
3355;SDS011;1691;52.486;13.374;2023-04-08T02:22:01;32.07;;;19.70;;
3355;SDS011;1691;52.486;13.374;2023-04-08T02:24:37;40.93;;;21.47;;
3355;SDS011;1691;52.486;13.374;2023-04-08T02:27:05;35.87;;;20.40;;
3355;SDS011;1691;52.486;13.374;2023-04-08T02:29:36;43.17;;;19.87;;
3355;SDS011;1691;52.486;13.374;2023-04-08T02:32:06;37.03;;;20.60;;
3355;SDS011;1691;52.486;13.374;2023-04-08T02:34:38;37.03;;;20.30;;
3355;SDS011;1691;52.486;13.374;2023-04-08T02:37:07;37.83;;;20.30;;
3355;SDS011;1691;52.486;13.374;2023-04-08T02:39:35;36.20;;;20.10;;
3355;SDS011;1691;52.486;13.374;2023-04-08T02:42:02;44.93;;;22.13;;
3355;SDS011;1691;52.486;13.374;2023-04-08T02:44:30;37.07;;;20.40;;
3355;SDS011;1691;52.486;13.374;2023-04-08T02:46:57;34.90;;;19.77;;
3355;SDS011;1691;52.486;13.374;2023-04-08T02:49:24;43.90;;;20.80;;
3355;SDS011;1691;52.486;13.374;2023-04-08T02:51:51;42.67;;;21.60;;
3355;SDS011;1691;52.486;13.374;2023-04-08T02:54:18;35.90;;;19.70;;
3355;SDS011;1691;52.486;13.374;2023-04-08T02:56:45;47.20;;;21.27;;
3355;SDS011;1691;52.486;13.374;2023-04-08T02:59:12;45.60;;;21.67;;
3355;SDS011;1691;52.486;13.374;2023-04-08T03:01:39;35.30;;;19.83;;
3355;SDS011;1691;52.486;13.374;2023-04-08T03:04:08;42.83;;;21.70;;
3355;SDS011;1691;52.486;13.374;2023-04-08T03:06:35;43.40;;;19.83;;
3355;SDS011;1691;52.486;13.374;2023-04-08T03:09:02;33.20;;;19.07;;
3355;SDS011;1691;52.486;13.374;2023-04-08T03:11:31;34.40;;;20.10;;
3355;SDS011;1691;52.486;13.374;2023-04-08T03:13:58;36.50;;;20.17;;
3355;SDS011;1691;52.486;13.374;2023-04-08T03:16:26;48.90;;;19.80;;
3355;SDS011;1691;52.486;13.374;2023-04-08T03:18:53;42.27;;;22.07;;
3355;SDS011;1691;52.486;13.374;2023-04-08T03:21:20;45.20;;;21.40;;
3355;SDS011;1691;52.486;13.374;2023-04-08T03:23:47;38.67;;;19.80;;
3355;SDS011;1691;52.486;13.374;2023-04-08T03:26:14;41.33;;;20.07;;
3355;SDS011;1691;52.486;13.374;2023-04-08T03:28:41;49.23;;;23.53;;
3355;SDS011;1691;52.486;13.374;2023-04-08T03:31:09;37.00;;;21.23;;
3355;SDS011;1691;52.486;13.374;2023-04-08T03:33:36;41.43;;;21.00;;
3355;SDS011;1691;52.486;13.374;2023-04-08T03:36:03;41.03;;;20.37;;
3355;SDS011;1691;52.486;13.374;2023-04-08T03:38:31;44.70;;;21.97;;
3355;SDS011;1691;52.486;13.374;2023-04-08T03:40:58;47.20;;;22.93;;
3355;SDS011;1691;52.486;13.374;2023-04-08T03:43:26;45.77;;;21.60;;
3355;SDS011;1691;52.486;13.374;2023-04-08T03:45:53;43.80;;;21.57;;
3355;SDS011;1691;52.486;13.374;2023-04-08T03:48:21;49.80;;;22.50;;
3355;SDS011;1691;52.486;13.374;2023-04-08T03:50:48;38.97;;;22.40;;
3355;SDS011;1691;52.486;13.374;2023-04-08T03:53:16;47.13;;;23.17;;
3355;SDS011;1691;52.486;13.374;2023-04-08T03:55:43;36.37;;;17.90;;
3355;SDS011;1691;52.486;13.374;2023-04-08T03:58:10;37.30;;;21.07;;
3355;SDS011;1691;52.486;13.374;2023-04-08T04:00:37;42.33;;;20.60;;
3355;SDS011;1691;52.486;13.374;2023-04-08T04:03:04;40.37;;;22.10;;
3355;SDS011;1691;52.486;13.374;2023-04-08T04:05:31;42.10;;;20.50;;
3355;SDS011;1691;52.486;13.374;2023-04-08T04:07:58;40.00;;;20.70;;
3355;SDS011;1691;52.486;13.374;2023-04-08T04:10:25;45.07;;;22.93;;
3355;SDS011;1691;52.486;13.374;2023-04-08T04:12:52;41.10;;;20.80;;
3355;SDS011;1691;52.486;13.374;2023-04-08T04:15:20;38.30;;;21.60;;
3355;SDS011;1691;52.486;13.374;2023-04-08T04:17:47;49.33;;;23.23;;
3355;SDS011;1691;52.486;13.374;2023-04-08T04:20:16;45.13;;;22.37;;
3355;SDS011;1691;52.486;13.374;2023-04-08T04:22:43;44.40;;;21.53;;
3355;SDS011;1691;52.486;13.374;2023-04-08T04:25:11;40.63;;;22.60;;
3355;SDS011;1691;52.486;13.374;2023-04-08T04:27:38;43.13;;;22.20;;
3355;SDS011;1691;52.486;13.374;2023-04-08T04:30:05;45.73;;;22.87;;
3355;SDS011;1691;52.486;13.374;2023-04-08T04:32:33;42.97;;;24.17;;
3355;SDS011;1691;52.486;13.374;2023-04-08T04:35:00;52.30;;;24.97;;
3355;SDS011;1691;52.486;13.374;2023-04-08T04:37:27;43.33;;;23.37;;
3355;SDS011;1691;52.486;13.374;2023-04-08T04:39:54;48.23;;;24.70;;
3355;SDS011;1691;52.486;13.374;2023-04-08T04:42:21;48.23;;;22.77;;
3355;SDS011;1691;52.486;13.374;2023-04-08T04:44:48;46.10;;;22.00;;
3355;SDS011;1691;52.486;13.374;2023-04-08T04:47:15;51.63;;;24.53;;
3355;SDS011;1691;52.486;13.374;2023-04-08T04:49:42;45.87;;;23.63;;
3355;SDS011;1691;52.486;13.374;2023-04-08T04:52:10;53.60;;;24.67;;
3355;SDS011;1691;52.486;13.374;2023-04-08T04:54:37;45.03;;;23.50;;
3355;SDS011;1691;52.486;13.374;2023-04-08T04:57:05;46.07;;;24.60;;
3355;SDS011;1691;52.486;13.374;2023-04-08T04:59:32;56.53;;;23.00;;
3355;SDS011;1691;52.486;13.374;2023-04-08T05:01:59;43.63;;;20.73;;
3355;SDS011;1691;52.486;13.374;2023-04-08T05:04:27;58.23;;;24.60;;
3355;SDS011;1691;52.486;13.374;2023-04-08T05:06:54;50.33;;;24.03;;
3355;SDS011;1691;52.486;13.374;2023-04-08T05:09:21;49.13;;;24.40;;
3355;SDS011;1691;52.486;13.374;2023-04-08T05:11:48;50.80;;;23.30;;
3355;SDS011;1691;52.486;13.374;2023-04-08T05:14:15;38.87;;;21.27;;
3355;SDS011;1691;52.486;13.374;2023-04-08T05:16:42;44.93;;;23.33;;
3355;SDS011;1691;52.486;13.374;2023-04-08T05:19:09;52.20;;;23.43;;
3355;SDS011;1691;52.486;13.374;2023-04-08T05:21:36;43.00;;;23.13;;
3355;SDS011;1691;52.486;13.374;2023-04-08T05:24:03;39.53;;;23.00;;
3355;SDS011;1691;52.486;13.374;2023-04-08T05:26:31;52.03;;;24.67;;
3355;SDS011;1691;52.486;13.374;2023-04-08T05:28:58;46.03;;;23.17;;
3355;SDS011;1691;52.486;13.374;2023-04-08T05:31:25;54.10;;;26.10;;
3355;SDS011;1691;52.486;13.374;2023-04-08T05:33:52;48.23;;;24.37;;
3355;SDS011;1691;52.486;13.374;2023-04-08T05:36:19;52.73;;;25.80;;
3355;SDS011;1691;52.486;13.374;2023-04-08T05:38:46;55.73;;;25.30;;
3355;SDS011;1691;52.486;13.374;2023-04-08T05:41:14;47.00;;;24.20;;
3355;SDS011;1691;52.486;13.374;2023-04-08T05:43:41;44.03;;;23.67;;
3355;SDS011;1691;52.486;13.374;2023-04-08T05:46:09;43.53;;;24.30;;
3355;SDS011;1691;52.486;13.374;2023-04-08T05:48:36;53.50;;;27.17;;
3355;SDS011;1691;52.486;13.374;2023-04-08T05:51:03;48.63;;;26.47;;
3355;SDS011;1691;52.486;13.374;2023-04-08T05:53:30;45.67;;;24.43;;
3355;SDS011;1691;52.486;13.374;2023-04-08T05:55:57;56.77;;;25.50;;
3355;SDS011;1691;52.486;13.374;2023-04-08T05:58:24;48.40;;;23.27;;
3355;SDS011;1691;52.486;13.374;2023-04-08T06:00:51;46.93;;;25.90;;
3355;SDS011;1691;52.486;13.374;2023-04-08T06:03:20;50.60;;;25.50;;
3355;SDS011;1691;52.486;13.374;2023-04-08T06:05:48;58.93;;;24.23;;
3355;SDS011;1691;52.486;13.374;2023-04-08T06:08:15;52.10;;;25.77;;
3355;SDS011;1691;52.486;13.374;2023-04-08T06:10:48;56.43;;;26.67;;
3355;SDS011;1691;52.486;13.374;2023-04-08T06:13:16;55.23;;;26.13;;
3355;SDS011;1691;52.486;13.374;2023-04-08T06:15:45;67.10;;;32.47;;
3355;SDS011;1691;52.486;13.374;2023-04-08T06:18:15;56.40;;;26.30;;
3355;SDS011;1691;52.486;13.374;2023-04-08T06:20:42;47.60;;;26.47;;
3355;SDS011;1691;52.486;13.374;2023-04-08T06:23:09;48.87;;;26.43;;
3355;SDS011;1691;52.486;13.374;2023-04-08T06:25:36;45.60;;;25.33;;
3355;SDS011;1691;52.486;13.374;2023-04-08T06:28:03;55.87;;;27.50;;
3355;SDS011;1691;52.486;13.374;2023-04-08T06:30:31;50.37;;;26.33;;
3355;SDS011;1691;52.486;13.374;2023-04-08T06:32:58;52.23;;;25.67;;
3355;SDS011;1691;52.486;13.374;2023-04-08T06:35:25;56.07;;;26.47;;
3355;SDS011;1691;52.486;13.374;2023-04-08T06:37:53;56.63;;;27.03;;
3355;SDS011;1691;52.486;13.374;2023-04-08T06:40:20;51.23;;;25.70;;
3355;SDS011;1691;52.486;13.374;2023-04-08T06:42:47;52.30;;;26.23;;
3355;SDS011;1691;52.486;13.374;2023-04-08T06:45:14;50.20;;;24.73;;
3355;SDS011;1691;52.486;13.374;2023-04-08T06:47:41;48.90;;;24.23;;
3355;SDS011;1691;52.486;13.374;2023-04-08T06:50:09;41.13;;;24.53;;
3355;SDS011;1691;52.486;13.374;2023-04-08T06:52:36;54.37;;;27.40;;
3355;SDS011;1691;52.486;13.374;2023-04-08T06:55:03;56.90;;;27.67;;
3355;SDS011;1691;52.486;13.374;2023-04-08T06:57:31;50.10;;;25.80;;
3355;SDS011;1691;52.486;13.374;2023-04-08T06:59:58;54.20;;;26.27;;
3355;SDS011;1691;52.486;13.374;2023-04-08T07:02:25;46.30;;;24.57;;
3355;SDS011;1691;52.486;13.374;2023-04-08T07:04:53;63.33;;;27.63;;
3355;SDS011;1691;52.486;13.374;2023-04-08T07:07:20;56.63;;;26.47;;
3355;SDS011;1691;52.486;13.374;2023-04-08T07:09:49;58.07;;;25.73;;
3355;SDS011;1691;52.486;13.374;2023-04-08T07:12:16;49.83;;;26.60;;
3355;SDS011;1691;52.486;13.374;2023-04-08T07:14:43;50.77;;;25.20;;
3355;SDS011;1691;52.486;13.374;2023-04-08T07:17:10;60.70;;;27.23;;
3355;SDS011;1691;52.486;13.374;2023-04-08T07:19:37;49.83;;;25.50;;
3355;SDS011;1691;52.486;13.374;2023-04-08T07:22:04;52.73;;;25.13;;
3355;SDS011;1691;52.486;13.374;2023-04-08T07:24:31;54.63;;;28.00;;
3355;SDS011;1691;52.486;13.374;2023-04-08T07:26:59;50.97;;;25.73;;
3355;SDS011;1691;52.486;13.374;2023-04-08T07:29:26;47.63;;;24.23;;
3355;SDS011;1691;52.486;13.374;2023-04-08T07:31:53;50.10;;;25.77;;
3355;SDS011;1691;52.486;13.374;2023-04-08T07:34:21;45.30;;;24.20;;
3355;SDS011;1691;52.486;13.374;2023-04-08T07:36:48;52.83;;;25.57;;
3355;SDS011;1691;52.486;13.374;2023-04-08T07:39:15;54.00;;;25.80;;
3355;SDS011;1691;52.486;13.374;2023-04-08T07:41:42;46.00;;;24.67;;
3355;SDS011;1691;52.486;13.374;2023-04-08T07:44:09;46.23;;;24.27;;
3355;SDS011;1691;52.486;13.374;2023-04-08T07:46:36;47.33;;;25.53;;
3355;SDS011;1691;52.486;13.374;2023-04-08T07:49:04;49.70;;;25.23;;
3355;SDS011;1691;52.486;13.374;2023-04-08T07:51:31;53.47;;;25.47;;
3355;SDS011;1691;52.486;13.374;2023-04-08T07:53:59;43.70;;;23.90;;
3355;SDS011;1691;52.486;13.374;2023-04-08T07:56:26;45.53;;;24.37;;
3355;SDS011;1691;52.486;13.374;2023-04-08T07:58:53;49.33;;;24.80;;
3355;SDS011;1691;52.486;13.374;2023-04-08T08:01:20;40.57;;;23.87;;
3355;SDS011;1691;52.486;13.374;2023-04-08T08:03:49;47.90;;;24.07;;
3355;SDS011;1691;52.486;13.374;2023-04-08T08:06:18;51.90;;;24.90;;
3355;SDS011;1691;52.486;13.374;2023-04-08T08:08:46;51.67;;;25.60;;
3355;SDS011;1691;52.486;13.374;2023-04-08T08:11:13;44.77;;;23.97;;
3355;SDS011;1691;52.486;13.374;2023-04-08T08:13:40;39.03;;;22.50;;
3355;SDS011;1691;52.486;13.374;2023-04-08T08:16:07;48.87;;;24.20;;
3355;SDS011;1691;52.486;13.374;2023-04-08T08:18:37;44.70;;;23.97;;
3355;SDS011;1691;52.486;13.374;2023-04-08T08:21:05;42.67;;;23.73;;
3355;SDS011;1691;52.486;13.374;2023-04-08T08:23:33;47.40;;;24.87;;
3355;SDS011;1691;52.486;13.374;2023-04-08T08:26:01;41.10;;;22.80;;
3355;SDS011;1691;52.486;13.374;2023-04-08T08:28:36;46.10;;;25.67;;
3355;SDS011;1691;52.486;13.374;2023-04-08T08:31:04;44.77;;;24.47;;
3355;SDS011;1691;52.486;13.374;2023-04-08T08:33:32;40.93;;;23.60;;
3355;SDS011;1691;52.486;13.374;2023-04-08T08:35:59;39.63;;;23.30;;
3355;SDS011;1691;52.486;13.374;2023-04-08T08:38:26;38.20;;;22.30;;
3355;SDS011;1691;52.486;13.374;2023-04-08T08:40:54;40.33;;;24.30;;
3355;SDS011;1691;52.486;13.374;2023-04-08T08:43:26;39.67;;;22.90;;
3355;SDS011;1691;52.486;13.374;2023-04-08T08:45:54;48.67;;;24.10;;
3355;SDS011;1691;52.486;13.374;2023-04-08T08:48:21;42.00;;;23.73;;
3355;SDS011;1691;52.486;13.374;2023-04-08T08:50:48;43.20;;;24.13;;
3355;SDS011;1691;52.486;13.374;2023-04-08T08:53:16;46.57;;;24.63;;
3355;SDS011;1691;52.486;13.374;2023-04-08T08:55:44;47.80;;;24.93;;
3355;SDS011;1691;52.486;13.374;2023-04-08T08:58:32;46.50;;;25.30;;
3355;SDS011;1691;52.486;13.374;2023-04-08T09:01:00;41.27;;;22.97;;
3355;SDS011;1691;52.486;13.374;2023-04-08T09:03:27;44.50;;;23.80;;
3355;SDS011;1691;52.486;13.374;2023-04-08T09:05:56;36.00;;;22.80;;
3355;SDS011;1691;52.486;13.374;2023-04-08T09:11:15;37.77;;;21.03;;
3355;SDS011;1691;52.486;13.374;2023-04-08T09:13:44;38.87;;;22.73;;
3355;SDS011;1691;52.486;13.374;2023-04-08T09:16:15;44.00;;;21.80;;
3355;SDS011;1691;52.486;13.374;2023-04-08T09:18:45;36.33;;;21.80;;
3355;SDS011;1691;52.486;13.374;2023-04-08T09:21:15;43.93;;;24.33;;
3355;SDS011;1691;52.486;13.374;2023-04-08T09:23:44;42.73;;;22.37;;
3355;SDS011;1691;52.486;13.374;2023-04-08T09:26:18;41.00;;;23.37;;
3355;SDS011;1691;52.486;13.374;2023-04-08T09:28:57;32.33;;;21.13;;
3355;SDS011;1691;52.486;13.374;2023-04-08T09:31:54;35.33;;;20.30;;
3355;SDS011;1691;52.486;13.374;2023-04-08T09:34:26;37.50;;;20.60;;
3355;SDS011;1691;52.486;13.374;2023-04-08T09:36:54;39.40;;;23.30;;
3355;SDS011;1691;52.486;13.374;2023-04-08T09:39:22;47.97;;;23.93;;
3355;SDS011;1691;52.486;13.374;2023-04-08T09:41:49;32.53;;;20.17;;
3355;SDS011;1691;52.486;13.374;2023-04-08T09:44:19;38.80;;;24.07;;
3355;SDS011;1691;52.486;13.374;2023-04-08T09:49:26;38.73;;;22.83;;
3355;SDS011;1691;52.486;13.374;2023-04-08T09:52:11;43.47;;;23.30;;
3355;SDS011;1691;52.486;13.374;2023-04-08T09:54:53;42.40;;;21.70;;
3355;SDS011;1691;52.486;13.374;2023-04-08T10:00:27;38.73;;;22.90;;
3355;SDS011;1691;52.486;13.374;2023-04-08T10:03:01;44.30;;;23.80;;
3355;SDS011;1691;52.486;13.374;2023-04-08T10:05:40;36.37;;;22.30;;
3355;SDS011;1691;52.486;13.374;2023-04-08T10:08:09;31.40;;;20.90;;
3355;SDS011;1691;52.486;13.374;2023-04-08T10:10:39;33.00;;;21.30;;
3355;SDS011;1691;52.486;13.374;2023-04-08T10:13:07;32.67;;;20.67;;
3355;SDS011;1691;52.486;13.374;2023-04-08T10:15:35;42.23;;;20.50;;
3355;SDS011;1691;52.486;13.374;2023-04-08T10:25:36;35.30;;;21.67;;
3355;SDS011;1691;52.486;13.374;2023-04-08T10:30:47;34.03;;;20.53;;
3355;SDS011;1691;52.486;13.374;2023-04-08T10:33:17;36.40;;;21.40;;
3355;SDS011;1691;52.486;13.374;2023-04-08T10:35:54;31.30;;;20.80;;
3355;SDS011;1691;52.486;13.374;2023-04-08T10:38:36;38.33;;;21.00;;
3355;SDS011;1691;52.486;13.374;2023-04-08T10:41:04;35.20;;;21.93;;
3355;SDS011;1691;52.486;13.374;2023-04-08T10:43:32;38.93;;;22.47;;
3355;SDS011;1691;52.486;13.374;2023-04-08T10:46:00;31.23;;;20.80;;
3355;SDS011;1691;52.486;13.374;2023-04-08T10:48:28;28.73;;;21.20;;
3355;SDS011;1691;52.486;13.374;2023-04-08T10:50:55;35.40;;;19.53;;
3355;SDS011;1691;52.486;13.374;2023-04-08T10:56:15;32.10;;;20.47;;
3355;SDS011;1691;52.486;13.374;2023-04-08T10:58:47;26.30;;;19.10;;
3355;SDS011;1691;52.486;13.374;2023-04-08T11:01:21;31.03;;;20.17;;
3355;SDS011;1691;52.486;13.374;2023-04-08T11:03:49;29.43;;;21.33;;
3355;SDS011;1691;52.486;13.374;2023-04-08T11:06:17;29.63;;;19.10;;
3355;SDS011;1691;52.486;13.374;2023-04-08T11:08:45;30.50;;;20.67;;
3355;SDS011;1691;52.486;13.374;2023-04-08T11:11:12;29.07;;;18.87;;
3355;SDS011;1691;52.486;13.374;2023-04-08T11:13:41;28.13;;;18.13;;
3355;SDS011;1691;52.486;13.374;2023-04-08T11:16:19;23.70;;;16.97;;
3355;SDS011;1691;52.486;13.374;2023-04-08T11:18:49;29.13;;;18.17;;
3355;SDS011;1691;52.486;13.374;2023-04-08T11:21:16;28.10;;;18.73;;
3355;SDS011;1691;52.486;13.374;2023-04-08T11:23:43;24.97;;;18.33;;
3355;SDS011;1691;52.486;13.374;2023-04-08T11:26:10;21.10;;;16.70;;
3355;SDS011;1691;52.486;13.374;2023-04-08T11:28:40;29.53;;;17.00;;
3355;SDS011;1691;52.486;13.374;2023-04-08T11:31:08;22.07;;;16.33;;
3355;SDS011;1691;52.486;13.374;2023-04-08T11:33:37;24.73;;;18.27;;
3355;SDS011;1691;52.486;13.374;2023-04-08T11:36:12;26.73;;;17.83;;
3355;SDS011;1691;52.486;13.374;2023-04-08T11:38:40;26.17;;;18.27;;
3355;SDS011;1691;52.486;13.374;2023-04-08T11:41:07;24.90;;;16.43;;
3355;SDS011;1691;52.486;13.374;2023-04-08T11:43:44;25.33;;;18.43;;
3355;SDS011;1691;52.486;13.374;2023-04-08T11:46:21;23.10;;;16.33;;
3355;SDS011;1691;52.486;13.374;2023-04-08T11:48:58;28.33;;;17.80;;
3355;SDS011;1691;52.486;13.374;2023-04-08T11:51:27;27.67;;;18.50;;
3355;SDS011;1691;52.486;13.374;2023-04-08T11:53:54;27.40;;;18.50;;
3355;SDS011;1691;52.486;13.374;2023-04-08T11:56:23;19.00;;;15.73;;
3355;SDS011;1691;52.486;13.374;2023-04-08T11:58:50;25.40;;;17.77;;
3355;SDS011;1691;52.486;13.374;2023-04-08T12:01:18;25.10;;;17.83;;
3355;SDS011;1691;52.486;13.374;2023-04-08T12:03:56;23.73;;;16.17;;
3355;SDS011;1691;52.486;13.374;2023-04-08T12:06:26;22.63;;;15.77;;
3355;SDS011;1691;52.486;13.374;2023-04-08T12:08:55;20.33;;;15.33;;
3355;SDS011;1691;52.486;13.374;2023-04-08T12:11:22;18.23;;;14.30;;
3355;SDS011;1691;52.486;13.374;2023-04-08T12:13:50;22.33;;;15.07;;
3355;SDS011;1691;52.486;13.374;2023-04-08T12:16:18;21.27;;;16.17;;
3355;SDS011;1691;52.486;13.374;2023-04-08T12:18:46;15.90;;;13.20;;
3355;SDS011;1691;52.486;13.374;2023-04-08T12:21:13;16.37;;;13.60;;
3355;SDS011;1691;52.486;13.374;2023-04-08T12:23:40;16.10;;;13.63;;
3355;SDS011;1691;52.486;13.374;2023-04-08T12:26:07;17.07;;;14.47;;
3355;SDS011;1691;52.486;13.374;2023-04-08T12:28:34;20.33;;;14.70;;
3355;SDS011;1691;52.486;13.374;2023-04-08T12:31:02;13.73;;;12.33;;
3355;SDS011;1691;52.486;13.374;2023-04-08T12:33:29;17.27;;;14.23;;
3355;SDS011;1691;52.486;13.374;2023-04-08T12:35:57;17.87;;;13.03;;
3355;SDS011;1691;52.486;13.374;2023-04-08T12:38:25;18.03;;;14.90;;
3355;SDS011;1691;52.486;13.374;2023-04-08T12:40:52;21.10;;;14.30;;
3355;SDS011;1691;52.486;13.374;2023-04-08T12:43:20;16.00;;;14.20;;
3355;SDS011;1691;52.486;13.374;2023-04-08T12:45:49;22.50;;;15.93;;
3355;SDS011;1691;52.486;13.374;2023-04-08T12:48:17;19.07;;;15.20;;
3355;SDS011;1691;52.486;13.374;2023-04-08T12:50:44;17.07;;;14.03;;
3355;SDS011;1691;52.486;13.374;2023-04-08T12:53:11;13.63;;;12.23;;
3355;SDS011;1691;52.486;13.374;2023-04-08T12:55:38;13.30;;;11.90;;
3355;SDS011;1691;52.486;13.374;2023-04-08T12:58:07;19.87;;;16.33;;
3355;SDS011;1691;52.486;13.374;2023-04-08T13:00:34;16.17;;;13.80;;
3355;SDS011;1691;52.486;13.374;2023-04-08T13:03:05;16.77;;;14.30;;
3355;SDS011;1691;52.486;13.374;2023-04-08T13:05:32;12.13;;;11.00;;
3355;SDS011;1691;52.486;13.374;2023-04-08T13:08:09;12.23;;;11.13;;
3355;SDS011;1691;52.486;13.374;2023-04-08T13:10:40;11.17;;;10.03;;
3355;SDS011;1691;52.486;13.374;2023-04-08T13:13:08;11.53;;;10.40;;
3355;SDS011;1691;52.486;13.374;2023-04-08T13:15:35;11.77;;;10.73;;
3355;SDS011;1691;52.486;13.374;2023-04-08T13:18:03;10.40;;;9.60;;
3355;SDS011;1691;52.486;13.374;2023-04-08T13:20:30;9.77;;;9.07;;
3355;SDS011;1691;52.486;13.374;2023-04-08T13:22:57;8.63;;;7.93;;
3355;SDS011;1691;52.486;13.374;2023-04-08T13:25:26;23.40;;;10.57;;
3355;SDS011;1691;52.486;13.374;2023-04-08T13:27:53;12.70;;;11.50;;
3355;SDS011;1691;52.486;13.374;2023-04-08T13:30:20;13.37;;;11.93;;
3355;SDS011;1691;52.486;13.374;2023-04-08T13:32:47;15.37;;;12.60;;
3355;SDS011;1691;52.486;13.374;2023-04-08T13:35:14;10.43;;;9.43;;
3355;SDS011;1691;52.486;13.374;2023-04-08T13:37:41;12.63;;;11.47;;
3355;SDS011;1691;52.486;13.374;2023-04-08T13:40:09;10.77;;;9.73;;
3355;SDS011;1691;52.486;13.374;2023-04-08T13:42:37;11.47;;;10.17;;
3355;SDS011;1691;52.486;13.374;2023-04-08T13:45:04;12.00;;;11.00;;
3355;SDS011;1691;52.486;13.374;2023-04-08T13:47:32;12.10;;;10.87;;
3355;SDS011;1691;52.486;13.374;2023-04-08T13:50:02;11.40;;;10.40;;
3355;SDS011;1691;52.486;13.374;2023-04-08T13:52:31;16.33;;;11.10;;
3355;SDS011;1691;52.486;13.374;2023-04-08T13:54:59;11.07;;;9.97;;
3355;SDS011;1691;52.486;13.374;2023-04-08T13:57:26;11.27;;;10.27;;
3355;SDS011;1691;52.486;13.374;2023-04-08T13:59:53;11.60;;;10.60;;
3355;SDS011;1691;52.486;13.374;2023-04-08T14:02:21;12.23;;;10.77;;
3355;SDS011;1691;52.486;13.374;2023-04-08T14:04:48;12.63;;;10.67;;
3355;SDS011;1691;52.486;13.374;2023-04-08T14:07:15;11.93;;;10.80;;
3355;SDS011;1691;52.486;13.374;2023-04-08T14:09:42;11.13;;;10.10;;
3355;SDS011;1691;52.486;13.374;2023-04-08T14:12:09;10.13;;;9.13;;
3355;SDS011;1691;52.486;13.374;2023-04-08T14:14:36;11.37;;;10.17;;
3355;SDS011;1691;52.486;13.374;2023-04-08T14:17:03;10.43;;;9.43;;
3355;SDS011;1691;52.486;13.374;2023-04-08T14:19:31;10.90;;;9.80;;
3355;SDS011;1691;52.486;13.374;2023-04-08T14:21:58;11.10;;;9.97;;
3355;SDS011;1691;52.486;13.374;2023-04-08T14:24:25;10.80;;;9.80;;
3355;SDS011;1691;52.486;13.374;2023-04-08T14:26:52;11.33;;;10.23;;
3355;SDS011;1691;52.486;13.374;2023-04-08T14:29:19;15.07;;;10.00;;
3355;SDS011;1691;52.486;13.374;2023-04-08T14:31:46;11.03;;;9.43;;
3355;SDS011;1691;52.486;13.374;2023-04-08T14:34:13;9.40;;;8.70;;
3355;SDS011;1691;52.486;13.374;2023-04-08T14:36:40;10.10;;;9.30;;
3355;SDS011;1691;52.486;13.374;2023-04-08T14:39:07;10.23;;;9.33;;
3355;SDS011;1691;52.486;13.374;2023-04-08T14:41:35;12.80;;;11.23;;
3355;SDS011;1691;52.486;13.374;2023-04-08T14:44:03;11.20;;;10.20;;
3355;SDS011;1691;52.486;13.374;2023-04-08T14:46:30;10.67;;;9.70;;
3355;SDS011;1691;52.486;13.374;2023-04-08T14:48:57;10.70;;;9.80;;
3355;SDS011;1691;52.486;13.374;2023-04-08T14:51:26;11.27;;;10.37;;
3355;SDS011;1691;52.486;13.374;2023-04-08T14:53:53;11.20;;;10.30;;
3355;SDS011;1691;52.486;13.374;2023-04-08T14:56:20;10.77;;;9.80;;
3355;SDS011;1691;52.486;13.374;2023-04-08T14:58:47;11.43;;;10.00;;
3355;SDS011;1691;52.486;13.374;2023-04-08T15:01:14;10.70;;;9.87;;
3355;SDS011;1691;52.486;13.374;2023-04-08T15:03:41;11.40;;;10.37;;
3355;SDS011;1691;52.486;13.374;2023-04-08T15:06:08;12.23;;;11.07;;
3355;SDS011;1691;52.486;13.374;2023-04-08T15:08:36;14.73;;;10.40;;
3355;SDS011;1691;52.486;13.374;2023-04-08T15:11:03;10.67;;;9.67;;
3355;SDS011;1691;52.486;13.374;2023-04-08T15:13:30;10.23;;;9.40;;